sensor_id;sensor_type;location;lat;lon;timestamp;temperature;humidity
69225;DHT22;56333;51.306;17.056;2023-09-30T00:00:34;20.45;65.22
69225;DHT22;56333;51.306;17.056;2023-09-30T00:02:08;20.42;65.30
69225;DHT22;56333;51.306;17.056;2023-09-30T00:03:33;20.43;65.43
69225;DHT22;56333;51.306;17.056;2023-09-30T00:04:57;20.44;65.53
69225;DHT22;56333;51.306;17.056;2023-09-30T00:06:21;20.45;65.55
69225;DHT22;56333;51.306;17.056;2023-09-30T00:07:46;20.46;65.57
69225;DHT22;56333;51.306;17.056;2023-09-30T00:09:10;20.49;65.43
69225;DHT22;56333;51.306;17.056;2023-09-30T00:10:35;20.50;65.35
69225;DHT22;56333;51.306;17.056;2023-09-30T00:11:59;20.50;65.20
69225;DHT22;56333;51.306;17.056;2023-09-30T00:13:23;20.51;65.20
69225;DHT22;56333;51.306;17.056;2023-09-30T00:14:48;20.51;65.13
69225;DHT22;56333;51.306;17.056;2023-09-30T00:16:13;20.51;65.05
69225;DHT22;56333;51.306;17.056;2023-09-30T00:17:39;20.50;65.03
69225;DHT22;56333;51.306;17.056;2023-09-30T00:19:03;20.52;65.05
69225;DHT22;56333;51.306;17.056;2023-09-30T00:20:27;20.51;65.03
69225;DHT22;56333;51.306;17.056;2023-09-30T00:21:52;20.50;65.10
69225;DHT22;56333;51.306;17.056;2023-09-30T00:23:16;20.50;65.15
69225;DHT22;56333;51.306;17.056;2023-09-30T00:24:43;20.49;65.20
69225;DHT22;56333;51.306;17.056;2023-09-30T00:26:07;20.48;65.30
69225;DHT22;56333;51.306;17.056;2023-09-30T00:27:31;20.50;65.43
69225;DHT22;56333;51.306;17.056;2023-09-30T00:28:55;20.50;65.57
69225;DHT22;56333;51.306;17.056;2023-09-30T00:30:19;20.51;65.70
69225;DHT22;56333;51.306;17.056;2023-09-30T00:31:43;20.53;65.78
69225;DHT22;56333;51.306;17.056;2023-09-30T00:33:08;20.55;65.63
69225;DHT22;56333;51.306;17.056;2023-09-30T00:34:33;20.54;65.55
69225;DHT22;56333;51.306;17.056;2023-09-30T00:35:58;20.54;65.47
69225;DHT22;56333;51.306;17.056;2023-09-30T00:37:22;20.53;65.47
69225;DHT22;56333;51.306;17.056;2023-09-30T00:38:46;20.55;65.57
69225;DHT22;56333;51.306;17.056;2023-09-30T00:40:12;20.53;65.72
69225;DHT22;56333;51.306;17.056;2023-09-30T00:41:36;20.54;65.63
69225;DHT22;56333;51.306;17.056;2023-09-30T00:43:03;20.54;65.75
69225;DHT22;56333;51.306;17.056;2023-09-30T00:44:27;20.53;65.78
69225;DHT22;56333;51.306;17.056;2023-09-30T00:45:51;20.52;65.80
69225;DHT22;56333;51.306;17.056;2023-09-30T00:47:24;20.52;65.95
69225;DHT22;56333;51.306;17.056;2023-09-30T00:48:49;20.53;65.95
69225;DHT22;56333;51.306;17.056;2023-09-30T00:50:15;20.54;66.05
69225;DHT22;56333;51.306;17.056;2023-09-30T00:51:39;20.54;66.03
69225;DHT22;56333;51.306;17.056;2023-09-30T00:53:03;20.58;65.93
69225;DHT22;56333;51.306;17.056;2023-09-30T00:54:29;20.58;65.75
69225;DHT22;56333;51.306;17.056;2023-09-30T00:55:54;20.58;65.75
69225;DHT22;56333;51.306;17.056;2023-09-30T00:57:19;20.58;65.65
69225;DHT22;56333;51.306;17.056;2023-09-30T00:58:45;20.59;65.65
69225;DHT22;56333;51.306;17.056;2023-09-30T01:00:14;20.58;65.68
69225;DHT22;56333;51.306;17.056;2023-09-30T01:01:40;20.60;65.68
69225;DHT22;56333;51.306;17.056;2023-09-30T01:03:05;20.58;65.70
69225;DHT22;56333;51.306;17.056;2023-09-30T01:04:30;20.58;65.68
69225;DHT22;56333;51.306;17.056;2023-09-30T01:05:55;20.58;65.82
69225;DHT22;56333;51.306;17.056;2023-09-30T01:07:19;20.58;65.93
69225;DHT22;56333;51.306;17.056;2023-09-30T01:08:44;20.59;65.93
69225;DHT22;56333;51.306;17.056;2023-09-30T01:10:09;20.60;66.03
69225;DHT22;56333;51.306;17.056;2023-09-30T01:11:34;20.61;66.03
69225;DHT22;56333;51.306;17.056;2023-09-30T01:12:59;20.64;66.00
69225;DHT22;56333;51.306;17.056;2023-09-30T01:14:27;20.66;65.97
69225;DHT22;56333;51.306;17.056;2023-09-30T01:15:53;20.68;66.00
69225;DHT22;56333;51.306;17.056;2023-09-30T01:17:17;20.68;65.95
69225;DHT22;56333;51.306;17.056;2023-09-30T01:18:41;20.70;65.93
69225;DHT22;56333;51.306;17.056;2023-09-30T01:20:07;20.69;65.88
69225;DHT22;56333;51.306;17.056;2023-09-30T01:21:35;20.70;65.97
69225;DHT22;56333;51.306;17.056;2023-09-30T01:23:00;20.70;65.95
69225;DHT22;56333;51.306;17.056;2023-09-30T01:24:26;20.70;66.10
69225;DHT22;56333;51.306;17.056;2023-09-30T01:25:50;20.72;66.07
69225;DHT22;56333;51.306;17.056;2023-09-30T01:27:16;20.71;66.25
69225;DHT22;56333;51.306;17.056;2023-09-30T01:28:41;20.71;66.28
69225;DHT22;56333;51.306;17.056;2023-09-30T01:30:07;20.73;66.35
69225;DHT22;56333;51.306;17.056;2023-09-30T01:31:35;20.74;66.45
69225;DHT22;56333;51.306;17.056;2023-09-30T01:33:00;20.75;66.47
69225;DHT22;56333;51.306;17.056;2023-09-30T01:34:24;20.77;66.47
69225;DHT22;56333;51.306;17.056;2023-09-30T01:35:49;20.81;66.35
69225;DHT22;56333;51.306;17.056;2023-09-30T01:37:13;20.80;66.38
69225;DHT22;56333;51.306;17.056;2023-09-30T01:38:38;20.80;66.30
69225;DHT22;56333;51.306;17.056;2023-09-30T01:40:02;20.80;66.35
69225;DHT22;56333;51.306;17.056;2023-09-30T01:41:30;20.79;66.38
69225;DHT22;56333;51.306;17.056;2023-09-30T01:42:55;20.79;66.38
69225;DHT22;56333;51.306;17.056;2023-09-30T01:44:19;20.78;66.55
69225;DHT22;56333;51.306;17.056;2023-09-30T01:45:43;20.78;66.50
69225;DHT22;56333;51.306;17.056;2023-09-30T01:47:07;20.78;66.65
69225;DHT22;56333;51.306;17.056;2023-09-30T01:48:32;20.80;66.57
69225;DHT22;56333;51.306;17.056;2023-09-30T01:49:56;20.81;66.75
69225;DHT22;56333;51.306;17.056;2023-09-30T01:51:21;20.85;66.65
69225;DHT22;56333;51.306;17.056;2023-09-30T01:52:46;20.85;66.65
69225;DHT22;56333;51.306;17.056;2023-09-30T01:54:11;20.88;66.47
69225;DHT22;56333;51.306;17.056;2023-09-30T01:55:36;20.89;66.50
69225;DHT22;56333;51.306;17.056;2023-09-30T01:57:02;20.92;66.45
69225;DHT22;56333;51.306;17.056;2023-09-30T01:58:26;20.91;66.45
69225;DHT22;56333;51.306;17.056;2023-09-30T01:59:50;20.93;66.30
69225;DHT22;56333;51.306;17.056;2023-09-30T02:01:15;20.91;66.47
69225;DHT22;56333;51.306;17.056;2023-09-30T02:02:40;20.92;66.43
69225;DHT22;56333;51.306;17.056;2023-09-30T02:04:06;20.91;66.65
69225;DHT22;56333;51.306;17.056;2023-09-30T02:05:30;20.93;66.68
69225;DHT22;56333;51.306;17.056;2023-09-30T02:06:54;20.96;66.70
69225;DHT22;56333;51.306;17.056;2023-09-30T02:08:19;20.96;66.68
69225;DHT22;56333;51.306;17.056;2023-09-30T02:09:44;20.98;66.68
69225;DHT22;56333;51.306;17.056;2023-09-30T02:11:08;21.00;66.65
69225;DHT22;56333;51.306;17.056;2023-09-30T02:12:35;21.00;66.60
69225;DHT22;56333;51.306;17.056;2023-09-30T02:13:59;21.01;66.50
69225;DHT22;56333;51.306;17.056;2023-09-30T02:15:24;21.00;66.60
69225;DHT22;56333;51.306;17.056;2023-09-30T02:16:49;21.01;66.68
69225;DHT22;56333;51.306;17.056;2023-09-30T02:18:13;21.01;66.63
69225;DHT22;56333;51.306;17.056;2023-09-30T02:19:38;21.00;66.82
69225;DHT22;56333;51.306;17.056;2023-09-30T02:21:03;21.00;66.93
69225;DHT22;56333;51.306;17.056;2023-09-30T02:22:28;20.97;67.10
69225;DHT22;56333;51.306;17.056;2023-09-30T02:23:52;21.01;67.07
69225;DHT22;56333;51.306;17.056;2023-09-30T02:25:17;20.98;67.20
69225;DHT22;56333;51.306;17.056;2023-09-30T02:26:42;20.99;67.22
69225;DHT22;56333;51.306;17.056;2023-09-30T02:28:07;21.02;67.13
69225;DHT22;56333;51.306;17.056;2023-09-30T02:29:32;21.03;67.18
69225;DHT22;56333;51.306;17.056;2023-09-30T02:30:56;21.02;67.18
69225;DHT22;56333;51.306;17.056;2023-09-30T02:32:22;21.02;67.10
69225;DHT22;56333;51.306;17.056;2023-09-30T02:33:46;21.02;67.07
69225;DHT22;56333;51.306;17.056;2023-09-30T02:35:10;21.00;67.03
69225;DHT22;56333;51.306;17.056;2023-09-30T02:36:36;21.00;67.15
69225;DHT22;56333;51.306;17.056;2023-09-30T02:38:01;21.00;67.10
69225;DHT22;56333;51.306;17.056;2023-09-30T02:39:25;20.97;67.22
69225;DHT22;56333;51.306;17.056;2023-09-30T02:40:49;20.97;67.30
69225;DHT22;56333;51.306;17.056;2023-09-30T02:42:15;20.96;67.38
69225;DHT22;56333;51.306;17.056;2023-09-30T02:43:39;20.95;67.40
69225;DHT22;56333;51.306;17.056;2023-09-30T02:45:04;20.95;67.45
69225;DHT22;56333;51.306;17.056;2023-09-30T02:46:31;20.97;67.32
69225;DHT22;56333;51.306;17.056;2023-09-30T02:47:55;20.95;67.32
69225;DHT22;56333;51.306;17.056;2023-09-30T02:49:20;20.95;67.30
69225;DHT22;56333;51.306;17.056;2023-09-30T02:50:45;20.93;67.40
69225;DHT22;56333;51.306;17.056;2023-09-30T02:52:09;20.92;67.38
69225;DHT22;56333;51.306;17.056;2023-09-30T02:53:35;20.90;67.47
69225;DHT22;56333;51.306;17.056;2023-09-30T02:55:00;20.87;67.47
69225;DHT22;56333;51.306;17.056;2023-09-30T02:56:25;20.84;67.68
69225;DHT22;56333;51.306;17.056;2023-09-30T02:57:52;20.81;67.60
69225;DHT22;56333;51.306;17.056;2023-09-30T02:59:17;20.79;67.88
69225;DHT22;56333;51.306;17.056;2023-09-30T03:00:48;20.76;68.05
69225;DHT22;56333;51.306;17.056;2023-09-30T03:02:13;20.75;68.18
69225;DHT22;56333;51.306;17.056;2023-09-30T03:03:38;20.75;68.05
69225;DHT22;56333;51.306;17.056;2023-09-30T03:05:07;20.71;68.32
69225;DHT22;56333;51.306;17.056;2023-09-30T03:06:33;20.67;68.22
69225;DHT22;56333;51.306;17.056;2023-09-30T03:07:58;20.65;68.38
69225;DHT22;56333;51.306;17.056;2023-09-30T03:09:22;20.63;68.32
69225;DHT22;56333;51.306;17.056;2023-09-30T03:10:48;20.58;68.57
69225;DHT22;56333;51.306;17.056;2023-09-30T03:12:12;20.53;68.68
69225;DHT22;56333;51.306;17.056;2023-09-30T03:13:37;20.49;68.88
69225;DHT22;56333;51.306;17.056;2023-09-30T03:15:06;20.46;69.18
69225;DHT22;56333;51.306;17.056;2023-09-30T03:16:32;20.42;69.13
69225;DHT22;56333;51.306;17.056;2023-09-30T03:18:01;20.40;69.22
69225;DHT22;56333;51.306;17.056;2023-09-30T03:19:26;20.38;69.35
69225;DHT22;56333;51.306;17.056;2023-09-30T03:20:51;20.35;69.45
69225;DHT22;56333;51.306;17.056;2023-09-30T03:22:20;20.34;69.38
69225;DHT22;56333;51.306;17.056;2023-09-30T03:23:44;20.32;69.53
69225;DHT22;56333;51.306;17.056;2023-09-30T03:25:10;20.28;69.53
69225;DHT22;56333;51.306;17.056;2023-09-30T03:26:37;20.25;69.57
69225;DHT22;56333;51.306;17.056;2023-09-30T03:28:04;20.21;69.63
69225;DHT22;56333;51.306;17.056;2023-09-30T03:29:28;20.19;69.70
69225;DHT22;56333;51.306;17.056;2023-09-30T03:30:53;20.15;70.00
69225;DHT22;56333;51.306;17.056;2023-09-30T03:32:19;20.12;70.03
69225;DHT22;56333;51.306;17.056;2023-09-30T03:33:43;20.10;70.13
69225;DHT22;56333;51.306;17.056;2023-09-30T03:35:09;20.07;70.20
69225;DHT22;56333;51.306;17.056;2023-09-30T03:36:39;20.06;70.38
69225;DHT22;56333;51.306;17.056;2023-09-30T03:38:04;20.05;70.45
69225;DHT22;56333;51.306;17.056;2023-09-30T03:39:28;20.05;70.60
69225;DHT22;56333;51.306;17.056;2023-09-30T03:40:54;20.05;70.55
69225;DHT22;56333;51.306;17.056;2023-09-30T03:42:20;20.05;70.65
69225;DHT22;56333;51.306;17.056;2023-09-30T03:43:44;20.06;70.53
69225;DHT22;56333;51.306;17.056;2023-09-30T03:45:11;20.06;70.72
69225;DHT22;56333;51.306;17.056;2023-09-30T03:46:36;20.03;70.85
69225;DHT22;56333;51.306;17.056;2023-09-30T03:48:02;20.02;70.75
69225;DHT22;56333;51.306;17.056;2023-09-30T03:49:29;20.04;70.97
69225;DHT22;56333;51.306;17.056;2023-09-30T03:50:53;20.03;70.88
69225;DHT22;56333;51.306;17.056;2023-09-30T03:52:17;20.01;71.18
69225;DHT22;56333;51.306;17.056;2023-09-30T03:53:44;20.02;71.10
69225;DHT22;56333;51.306;17.056;2023-09-30T03:55:09;20.03;71.05
69225;DHT22;56333;51.306;17.056;2023-09-30T03:56:34;20.05;71.00
69225;DHT22;56333;51.306;17.056;2023-09-30T03:58:00;20.05;71.10
69225;DHT22;56333;51.306;17.056;2023-09-30T03:59:25;20.05;71.05
69225;DHT22;56333;51.306;17.056;2023-09-30T04:00:49;20.05;71.10
69225;DHT22;56333;51.306;17.056;2023-09-30T04:02:14;20.05;71.05
69225;DHT22;56333;51.306;17.056;2023-09-30T04:03:39;20.03;70.97
69225;DHT22;56333;51.306;17.056;2023-09-30T04:05:06;20.01;70.95
69225;DHT22;56333;51.306;17.056;2023-09-30T04:06:33;19.97;71.13
69225;DHT22;56333;51.306;17.056;2023-09-30T04:07:59;19.95;71.13
69225;DHT22;56333;51.306;17.056;2023-09-30T04:09:24;19.92;71.30
69225;DHT22;56333;51.306;17.056;2023-09-30T04:10:48;19.92;71.32
69225;DHT22;56333;51.306;17.056;2023-09-30T04:12:12;19.90;71.57
69225;DHT22;56333;51.306;17.056;2023-09-30T04:13:38;19.90;71.72
69225;DHT22;56333;51.306;17.056;2023-09-30T04:15:03;19.88;71.65
69225;DHT22;56333;51.306;17.056;2023-09-30T04:16:31;19.87;71.82
69225;DHT22;56333;51.306;17.056;2023-09-30T04:17:56;19.87;71.75
69225;DHT22;56333;51.306;17.056;2023-09-30T04:19:20;19.86;71.82
69225;DHT22;56333;51.306;17.056;2023-09-30T04:20:45;19.84;71.88
69225;DHT22;56333;51.306;17.056;2023-09-30T04:22:09;19.81;71.97
69225;DHT22;56333;51.306;17.056;2023-09-30T04:23:33;19.79;71.88
69225;DHT22;56333;51.306;17.056;2023-09-30T04:24:58;19.76;72.07
69225;DHT22;56333;51.306;17.056;2023-09-30T04:26:23;19.73;71.88
69225;DHT22;56333;51.306;17.056;2023-09-30T04:27:47;19.70;72.07
69225;DHT22;56333;51.306;17.056;2023-09-30T04:29:12;19.68;72.50
69225;DHT22;56333;51.306;17.056;2023-09-30T04:30:37;19.66;72.70
69225;DHT22;56333;51.306;17.056;2023-09-30T04:32:03;19.65;72.70
69225;DHT22;56333;51.306;17.056;2023-09-30T04:33:28;19.64;72.70
69225;DHT22;56333;51.306;17.056;2023-09-30T04:34:51;19.62;72.57
69225;DHT22;56333;51.306;17.056;2023-09-30T04:36:16;19.62;72.72
69225;DHT22;56333;51.306;17.056;2023-09-30T04:37:40;19.61;72.85
69225;DHT22;56333;51.306;17.056;2023-09-30T04:39:05;19.61;72.78
69225;DHT22;56333;51.306;17.056;2023-09-30T04:40:30;19.62;72.90
69225;DHT22;56333;51.306;17.056;2023-09-30T04:41:55;19.62;72.97
69225;DHT22;56333;51.306;17.056;2023-09-30T04:43:22;19.63;73.28
69225;DHT22;56333;51.306;17.056;2023-09-30T04:44:52;19.63;73.32
69225;DHT22;56333;51.306;17.056;2023-09-30T04:46:17;19.63;73.38
69225;DHT22;56333;51.306;17.056;2023-09-30T04:47:42;19.65;73.40
69225;DHT22;56333;51.306;17.056;2023-09-30T04:49:07;19.65;73.45
69225;DHT22;56333;51.306;17.056;2023-09-30T04:50:31;19.68;73.32
69225;DHT22;56333;51.306;17.056;2023-09-30T04:51:56;19.68;73.38
69225;DHT22;56333;51.306;17.056;2023-09-30T04:53:20;19.68;73.50
69225;DHT22;56333;51.306;17.056;2023-09-30T04:54:46;19.70;73.35
69225;DHT22;56333;51.306;17.056;2023-09-30T04:56:11;19.68;73.55
69225;DHT22;56333;51.306;17.056;2023-09-30T04:57:35;19.69;73.45
69225;DHT22;56333;51.306;17.056;2023-09-30T04:58:59;19.69;73.65
69225;DHT22;56333;51.306;17.056;2023-09-30T05:00:26;19.69;73.53
69225;DHT22;56333;51.306;17.056;2023-09-30T05:01:52;19.72;73.65
69225;DHT22;56333;51.306;17.056;2023-09-30T05:03:18;19.75;73.57
69225;DHT22;56333;51.306;17.056;2023-09-30T05:04:43;19.75;73.53
69225;DHT22;56333;51.306;17.056;2023-09-30T05:06:07;19.76;73.70
69225;DHT22;56333;51.306;17.056;2023-09-30T05:07:32;19.77;73.70
69225;DHT22;56333;51.306;17.056;2023-09-30T05:08:56;19.76;73.65
69225;DHT22;56333;51.306;17.056;2023-09-30T05:10:20;19.78;73.47
69225;DHT22;56333;51.306;17.056;2023-09-30T05:11:46;19.77;73.80
69225;DHT22;56333;51.306;17.056;2023-09-30T05:13:10;19.81;73.65
69225;DHT22;56333;51.306;17.056;2023-09-30T05:14:35;19.82;73.60
69225;DHT22;56333;51.306;17.056;2023-09-30T05:16:01;19.83;73.68
69225;DHT22;56333;51.306;17.056;2023-09-30T05:17:25;19.84;73.63
69225;DHT22;56333;51.306;17.056;2023-09-30T05:18:50;19.87;73.55
69225;DHT22;56333;51.306;17.056;2023-09-30T05:20:15;19.88;73.60
69225;DHT22;56333;51.306;17.056;2023-09-30T05:21:41;19.88;73.50
69225;DHT22;56333;51.306;17.056;2023-09-30T05:23:06;19.87;73.63
69225;DHT22;56333;51.306;17.056;2023-09-30T05:24:34;19.87;73.70
69225;DHT22;56333;51.306;17.056;2023-09-30T05:25:59;19.86;73.70
69225;DHT22;56333;51.306;17.056;2023-09-30T05:27:23;19.89;73.63
69225;DHT22;56333;51.306;17.056;2023-09-30T05:28:52;19.87;73.80
69225;DHT22;56333;51.306;17.056;2023-09-30T05:30:16;19.88;73.70
69225;DHT22;56333;51.306;17.056;2023-09-30T05:31:42;19.89;73.70
69225;DHT22;56333;51.306;17.056;2023-09-30T05:33:07;19.89;73.78
69225;DHT22;56333;51.306;17.056;2023-09-30T05:34:35;19.90;73.72
69225;DHT22;56333;51.306;17.056;2023-09-30T05:36:01;19.91;73.72
69225;DHT22;56333;51.306;17.056;2023-09-30T05:37:26;19.91;73.85
69225;DHT22;56333;51.306;17.056;2023-09-30T05:38:50;19.90;73.90
69225;DHT22;56333;51.306;17.056;2023-09-30T05:40:15;19.90;73.95
69225;DHT22;56333;51.306;17.056;2023-09-30T05:41:44;19.89;74.00
69225;DHT22;56333;51.306;17.056;2023-09-30T05:43:09;19.89;73.88
69225;DHT22;56333;51.306;17.056;2023-09-30T05:44:35;19.90;73.95
69225;DHT22;56333;51.306;17.056;2023-09-30T05:46:00;19.89;74.05
69225;DHT22;56333;51.306;17.056;2023-09-30T05:47:25;19.90;74.03
69225;DHT22;56333;51.306;17.056;2023-09-30T05:48:49;19.89;74.07
69225;DHT22;56333;51.306;17.056;2023-09-30T05:50:13;19.88;74.28
69225;DHT22;56333;51.306;17.056;2023-09-30T05:51:38;19.86;74.32
69225;DHT22;56333;51.306;17.056;2023-09-30T05:53:04;19.84;74.30
69225;DHT22;56333;51.306;17.056;2023-09-30T05:54:28;19.83;74.30
69225;DHT22;56333;51.306;17.056;2023-09-30T05:55:53;19.78;74.28
69225;DHT22;56333;51.306;17.056;2023-09-30T05:57:17;19.79;74.30
69225;DHT22;56333;51.306;17.056;2023-09-30T05:58:42;19.78;74.10
69225;DHT22;56333;51.306;17.056;2023-09-30T06:00:11;19.70;73.30
69225;DHT22;56333;51.306;17.056;2023-09-30T06:01:50;19.64;72.70
69225;DHT22;56333;51.306;17.056;2023-09-30T06:03:16;19.59;72.38
69225;DHT22;56333;51.306;17.056;2023-09-30T06:04:40;19.54;71.75
69225;DHT22;56333;51.306;17.056;2023-09-30T06:06:10;19.48;71.13
69225;DHT22;56333;51.306;17.056;2023-09-30T06:07:37;19.39;70.32
69225;DHT22;56333;51.306;17.056;2023-09-30T06:09:03;19.31;69.72
69225;DHT22;56333;51.306;17.056;2023-09-30T06:10:29;19.23;69.40
69225;DHT22;56333;51.306;17.056;2023-09-30T06:11:53;19.15;69.30
69225;DHT22;56333;51.306;17.056;2023-09-30T06:13:18;19.11;69.25
69225;DHT22;56333;51.306;17.056;2023-09-30T06:14:43;19.09;69.28
69225;DHT22;56333;51.306;17.056;2023-09-30T06:16:07;19.01;68.93
69225;DHT22;56333;51.306;17.056;2023-09-30T06:17:34;18.97;68.57
69225;DHT22;56333;51.306;17.056;2023-09-30T06:18:59;18.90;68.57
69225;DHT22;56333;51.306;17.056;2023-09-30T06:20:24;18.82;68.55
69225;DHT22;56333;51.306;17.056;2023-09-30T06:21:49;18.69;68.68
69225;DHT22;56333;51.306;17.056;2023-09-30T06:23:14;18.65;68.78
69225;DHT22;56333;51.306;17.056;2023-09-30T06:24:40;18.56;69.15
69225;DHT22;56333;51.306;17.056;2023-09-30T06:26:06;18.50;69.60
69225;DHT22;56333;51.306;17.056;2023-09-30T06:27:32;18.43;70.15
69225;DHT22;56333;51.306;17.056;2023-09-30T06:28:56;18.37;70.35
69225;DHT22;56333;51.306;17.056;2023-09-30T06:30:22;18.31;70.43
69225;DHT22;56333;51.306;17.056;2023-09-30T06:31:51;18.27;70.65
69225;DHT22;56333;51.306;17.056;2023-09-30T06:33:16;18.29;70.53
69225;DHT22;56333;51.306;17.056;2023-09-30T06:34:40;18.25;70.70
69225;DHT22;56333;51.306;17.056;2023-09-30T06:36:09;18.25;70.60
69225;DHT22;56333;51.306;17.056;2023-09-30T06:37:35;18.19;70.53
69225;DHT22;56333;51.306;17.056;2023-09-30T06:39:01;18.17;70.50
69225;DHT22;56333;51.306;17.056;2023-09-30T06:40:28;18.15;70.50
69225;DHT22;56333;51.306;17.056;2023-09-30T06:41:52;18.13;70.50
69225;DHT22;56333;51.306;17.056;2023-09-30T06:43:22;18.09;70.68
69225;DHT22;56333;51.306;17.056;2023-09-30T06:44:47;18.10;70.70
69225;DHT22;56333;51.306;17.056;2023-09-30T06:46:14;18.09;70.70
69225;DHT22;56333;51.306;17.056;2023-09-30T06:47:40;18.09;70.75
69225;DHT22;56333;51.306;17.056;2023-09-30T06:49:05;18.10;70.57
69225;DHT22;56333;51.306;17.056;2023-09-30T06:50:30;18.11;70.25
69225;DHT22;56333;51.306;17.056;2023-09-30T06:51:58;18.13;70.07
69225;DHT22;56333;51.306;17.056;2023-09-30T06:53:25;18.10;69.93
69225;DHT22;56333;51.306;17.056;2023-09-30T06:54:57;18.11;69.75
69225;DHT22;56333;51.306;17.056;2023-09-30T06:56:22;18.10;69.72
69225;DHT22;56333;51.306;17.056;2023-09-30T06:57:51;18.10;69.75
69225;DHT22;56333;51.306;17.056;2023-09-30T06:59:15;18.09;69.70
69225;DHT22;56333;51.306;17.056;2023-09-30T07:00:41;18.09;69.70
69225;DHT22;56333;51.306;17.056;2023-09-30T07:02:06;18.09;69.75
69225;DHT22;56333;51.306;17.056;2023-09-30T07:03:31;18.09;69.68
69225;DHT22;56333;51.306;17.056;2023-09-30T07:04:57;18.09;69.72
69225;DHT22;56333;51.306;17.056;2023-09-30T07:06:25;18.09;69.75
69225;DHT22;56333;51.306;17.056;2023-09-30T07:07:50;18.08;69.70
69225;DHT22;56333;51.306;17.056;2023-09-30T07:09:40;18.07;69.82
69225;DHT22;56333;51.306;17.056;2023-09-30T07:11:06;18.08;69.88
69225;DHT22;56333;51.306;17.056;2023-09-30T07:12:33;18.10;69.85
69225;DHT22;56333;51.306;17.056;2023-09-30T07:14:06;18.12;69.93
69225;DHT22;56333;51.306;17.056;2023-09-30T07:15:32;18.16;69.82
69225;DHT22;56333;51.306;17.056;2023-09-30T07:16:57;18.20;69.80
69225;DHT22;56333;51.306;17.056;2023-09-30T07:18:22;18.25;69.85
69225;DHT22;56333;51.306;17.056;2023-09-30T07:19:47;18.30;69.85
69225;DHT22;56333;51.306;17.056;2023-09-30T07:21:14;18.36;69.72
69225;DHT22;56333;51.306;17.056;2023-09-30T07:22:43;18.42;69.60
69225;DHT22;56333;51.306;17.056;2023-09-30T07:24:09;18.47;69.47
69225;DHT22;56333;51.306;17.056;2023-09-30T07:25:34;18.51;69.28
69225;DHT22;56333;51.306;17.056;2023-09-30T07:26:59;18.55;69.10
69225;DHT22;56333;51.306;17.056;2023-09-30T07:28:24;18.51;68.90
69225;DHT22;56333;51.306;17.056;2023-09-30T07:29:48;18.52;68.97
69225;DHT22;56333;51.306;17.056;2023-09-30T07:31:15;18.51;69.00
69225;DHT22;56333;51.306;17.056;2023-09-30T07:32:41;18.51;69.10
69225;DHT22;56333;51.306;17.056;2023-09-30T07:34:07;18.50;69.15
69225;DHT22;56333;51.306;17.056;2023-09-30T07:35:33;18.52;69.13
69225;DHT22;56333;51.306;17.056;2023-09-30T07:36:57;18.51;69.32
69225;DHT22;56333;51.306;17.056;2023-09-30T07:38:22;18.53;69.32
69225;DHT22;56333;51.306;17.056;2023-09-30T07:39:47;18.51;69.22
69225;DHT22;56333;51.306;17.056;2023-09-30T07:41:13;18.48;68.93
69225;DHT22;56333;51.306;17.056;2023-09-30T07:42:40;18.44;68.88
69225;DHT22;56333;51.306;17.056;2023-09-30T07:44:07;18.41;68.97
69225;DHT22;56333;51.306;17.056;2023-09-30T07:45:33;18.42;69.15
69225;DHT22;56333;51.306;17.056;2023-09-30T07:46:59;18.38;69.22
69225;DHT22;56333;51.306;17.056;2023-09-30T07:48:25;18.35;69.30
69225;DHT22;56333;51.306;17.056;2023-09-30T07:49:50;18.38;69.35
69225;DHT22;56333;51.306;17.056;2023-09-30T07:51:19;18.40;69.30
69225;DHT22;56333;51.306;17.056;2023-09-30T07:52:45;18.42;69.13
69225;DHT22;56333;51.306;17.056;2023-09-30T07:54:11;18.45;69.03
69225;DHT22;56333;51.306;17.056;2023-09-30T07:55:36;18.44;68.82
69225;DHT22;56333;51.306;17.056;2023-09-30T07:57:01;18.47;68.80
69225;DHT22;56333;51.306;17.056;2023-09-30T07:58:26;18.49;68.80
69225;DHT22;56333;51.306;17.056;2023-09-30T07:59:50;18.47;68.47
69225;DHT22;56333;51.306;17.056;2023-09-30T08:01:15;18.46;68.53
69225;DHT22;56333;51.306;17.056;2023-09-30T08:02:40;18.46;68.45
69225;DHT22;56333;51.306;17.056;2023-09-30T08:04:06;18.46;68.63
69225;DHT22;56333;51.306;17.056;2023-09-30T08:05:30;18.44;68.55
69225;DHT22;56333;51.306;17.056;2023-09-30T08:06:55;18.46;68.63
69225;DHT22;56333;51.306;17.056;2023-09-30T08:08:20;18.48;68.53
69225;DHT22;56333;51.306;17.056;2023-09-30T08:09:45;18.48;68.03
69225;DHT22;56333;51.306;17.056;2023-09-30T08:11:11;18.47;67.75
69225;DHT22;56333;51.306;17.056;2023-09-30T08:12:36;18.48;67.53
69225;DHT22;56333;51.306;17.056;2023-09-30T08:14:02;18.50;67.28
69225;DHT22;56333;51.306;17.056;2023-09-30T08:15:31;18.52;67.13
69225;DHT22;56333;51.306;17.056;2023-09-30T08:16:56;18.54;67.00
69225;DHT22;56333;51.306;17.056;2023-09-30T08:18:24;18.56;67.07
69225;DHT22;56333;51.306;17.056;2023-09-30T08:19:49;18.58;66.75
69225;DHT22;56333;51.306;17.056;2023-09-30T08:21:14;18.55;66.05
69225;DHT22;56333;51.306;17.056;2023-09-30T08:22:39;18.57;66.03
69225;DHT22;56333;51.306;17.056;2023-09-30T08:24:05;18.54;65.82
69225;DHT22;56333;51.306;17.056;2023-09-30T08:25:30;18.54;65.47
69225;DHT22;56333;51.306;17.056;2023-09-30T08:26:54;18.51;65.25
69225;DHT22;56333;51.306;17.056;2023-09-30T08:28:19;18.47;64.65
69225;DHT22;56333;51.306;17.056;2023-09-30T08:29:45;18.47;64.65
69225;DHT22;56333;51.306;17.056;2023-09-30T08:31:09;18.43;64.45
69225;DHT22;56333;51.306;17.056;2023-09-30T08:32:34;18.41;64.55
69225;DHT22;56333;51.306;17.056;2023-09-30T08:33:59;18.35;64.13
69225;DHT22;56333;51.306;17.056;2023-09-30T08:35:26;18.35;63.97
69225;DHT22;56333;51.306;17.056;2023-09-30T08:36:51;18.29;63.38
69225;DHT22;56333;51.306;17.056;2023-09-30T08:38:15;18.22;62.47
69225;DHT22;56333;51.306;17.056;2023-09-30T08:39:39;18.17;62.70
69225;DHT22;56333;51.306;17.056;2023-09-30T08:41:05;18.13;62.70
69225;DHT22;56333;51.306;17.056;2023-09-30T08:42:30;18.13;62.80
69225;DHT22;56333;51.306;17.056;2023-09-30T08:43:56;18.12;62.15
69225;DHT22;56333;51.306;17.056;2023-09-30T08:45:24;18.10;61.88
69225;DHT22;56333;51.306;17.056;2023-09-30T08:46:53;18.09;62.17
69225;DHT22;56333;51.306;17.056;2023-09-30T08:48:19;18.09;62.45
69225;DHT22;56333;51.306;17.056;2023-09-30T08:49:45;18.11;62.88
69225;DHT22;56333;51.306;17.056;2023-09-30T08:51:11;18.11;62.28